This is the latest recevied weather packets stored in our database for station/object KA8DUX-2. If no packets are shown the sender has not sent any weather packets the latest 10 day(s).
| Time | Temp. | Humidity | Pressure | Rain* | Wind** | Luminosity | Snow |
|---|---|---|---|---|---|---|---|
| 1778170229 | 11.11° C | 46% | 1013.1 hPa | 0 mm | - | 720 W/m² | - |
| 1778169925 | 11.11° C | 45% | 1012.7 hPa | 0 mm | - | 759 W/m² | - |
| 1778169622 | 12.22° C | 46% | 1013.2 hPa | 0 mm | - | 282 W/m² | - |
| 1778169317 | 10.56° C | 48% | 1013 hPa | 0 mm | - | 845 W/m² | - |
| 1778169015 | 11.67° C | 46% | 1013 hPa | 0 mm | - | 579 W/m² | - |
| 1778168711 | 11.11° C | 49% | 1012.9 hPa | 0 mm | - | 464 W/m² | - |
| 1778168408 | 11.11° C | 48% | 1013.2 hPa | 0 mm | - | 321 W/m² | - |
| 1778168105 | 11.67° C | 47% | 1013 hPa | 0 mm | - | 384 W/m² | - |
| 1778167801 | 11.11° C | 46% | 1013 hPa | 0 mm | - | 674 W/m² | - |
| 1778167497 | 11.67° C | 45% | 1013 hPa | 0 mm | - | 780 W/m² | - |
| 1778167194 | 11.11° C | 50% | 1012.9 hPa | 0 mm | - | 786 W/m² | - |
| 1778166890 | 10.56° C | 48% | 1013 hPa | 0 mm | - | 743 W/m² | - |
| 1778166587 | 11.67° C | 44% | 1012.9 hPa | 0 mm | - | 147 W/m² | - |
| 1778166284 | 11.11° C | 46% | 1012.6 hPa | 0 mm | - | 433 W/m² | - |
| 1778165980 | 10.56° C | 46% | 1012.9 hPa | 0 mm | - | 739 W/m² | - |
| 1778165676 | 11.11° C | 46% | 1012.9 hPa | 0 mm | - | 718 W/m² | - |
| 1778165373 | 11.11° C | 46% | 1012.7 hPa | 0 mm | - | 743 W/m² | - |
| 1778165070 | 11.67° C | 45% | 1012.9 hPa | 0 mm | - | 722 W/m² | - |
| 1778164767 | 10.56° C | 47% | 1012.8 hPa | 0 mm | - | 672 W/m² | - |
| 1778164464 | 10.56° C | 46% | 1012.9 hPa | 0 mm | - | 156 W/m² | - |
| 1778164161 | 10.56° C | 49% | 1012.9 hPa | 0 mm | - | 265 W/m² | - |
| 1778163856 | 10.56° C | 49% | 1013 hPa | 0 mm | - | 321 W/m² | - |
| 1778163554 | 10° C | 49% | 1013.2 hPa | 0 mm | - | 618 W/m² | - |
| 1778163250 | 10° C | 50% | 1013 hPa | 0 mm | - | 617 W/m² | - |
| 1778162947 | 10° C | 50% | 1013.1 hPa | 0 mm | - | 568 W/m² | - |
* Rain latest hour (hover to see other rain measurements)
** Current wind speed in m/s (hover to see current wind gust speed)